Rutland, Pennsylvania
Current Conditions -  °F | °C
As of 8:35 AM on Saturday 01 Nov 2014 (Local Time) from KN38 Reporting Station
Light Rain Light Rain  
Wind Chill: 29°   Ceiling: 700
Heat Index: 37°   Visibility: 6mi
Dew Point: 36°   Wind: 13mph
Humidity: 93%   Direction: 10°N
Pressure: 29.95"   Gusts: NA
Location:  41.8345°N, 77.0538°W
Report Text: KN38 011235Z AUTO 01011KT 6SM -RA OVC007 03/02 A2995 RMK AO2
Loading
Personal Weather Stations






























Interactive Weather Map
Tropical Storm Tracking
New forecast layout! Learn more

10-Day Weather Forecast

Advertisements
Track Severe Weather on mobile